METAR AND TAF INFORMATION
METAR FOR ENGM
ADDS - METARS form results

(0004 UTC 19 March 2019)
Data provider http://aviationweather.gov/metar/data/
 
METAR text: ENGM 182350Z 36005KT 330V030 CAVOK M01/M08 Q1013
Conditions at: ENGM (OSLO/GARDERMOEN , NO) observed 2350 UTC 18 March 2019
Temperature: -1.0°C (30°F)
Dewpoint: -8.0°C (18°F) [RH = 59%]
Pressure (altimeter): 29.91 inches Hg (1013.0 mb)
Winds: from the N (360 degrees) at 6 MPH (5 knots; 2.6 m/s)
Visibility: 6 or more miles (10+ km)
Ceiling: ceiling and visibility are OK
Clouds: unknown
Weather: no significant weather observed at this time

METAR text: ENGM 182320Z 28003KT 210V350 CAVOK M01/M08 Q1012
Conditions at: ENGM (OSLO/GARDERMOEN , NO) observed 2320 UTC 18 March 2019
Temperature: -1.0°C (30°F)
Dewpoint: -8.0°C (18°F) [RH = 59%]
Pressure (altimeter): 29.88 inches Hg (1012.0 mb)
Winds: from the W (280 degrees) at 3 MPH (3 knots; 1.5 m/s)
Visibility: 6 or more miles (10+ km)
Ceiling: ceiling and visibility are OK
Clouds: unknown
Weather: no significant weather observed at this time

Forecast for: ENGM (OSLO/GARDERMOEN , NO)
Text: TAF ENGM 1900/1924 32005KT CAVOK
Forecast period: 0000 to 1000 UTC 19 March 2019
Forecast type: FROM: standard forecast or significant change
Winds: from the NW (320 degrees) at 6 MPH (5 knots; 2.6 m/s)
Visibility: 6 or more miles 10+ km)
Ceiling: unknown
Clouds: missing
Weather: NSW  (no significant weather)
Text: BECMG 1910/1912 18010KT
Forecast period: 1000 UTC 19 March 2019 to 0000 UTC 20 March 2019
Forecast type: BECOMING: Conditions expected to become as follows by 1200 UTC 19 March 2019
Winds: from the S (180 degrees) at 12 MPH (10 knots; 5.1 m/s)
Visibility: 6 or more miles 10+ km)
Ceiling: unknown
Clouds: missing
Weather: NSW  (no significant weather)

AIRPORT MAP

RUNWAY INFORMATION
Runway 01L Runway length 11811 ft Runway width 148 ft
Runway elevation 656 ft Runway displaced threshold 0 ft Runway heading 16
Runway 19R Runway length 11811 ft Runway width 148 ft
Runway elevation 675 ft Runway displaced threshold 0 ft Runway heading 196
Runway 01R Runway length 9678 ft Runway width 148 ft
Runway elevation 670 ft Runway displaced threshold 0 ft Runway heading 16
Runway 19L Runway length 9678 ft Runway width 148 ft
Runway elevation 681 ft Runway displaced threshold 0 ft Runway heading 196

AIRPORT FREQUENCIES
Type APP Name APP Frequency 119.975 MHZ
Type ATIS Name ATIS Frequency 126.125 MHZ
Type CLD Name CLNC DEL Frequency 121.6 MHZ
Type DIR Name DIRECTOR Frequency 131.35 MHZ
Type GND Name GND Frequency 121.925 MHZ
Type MISC Name DE ICING Frequency 131.975 MHZ
Type OPS Name WINGOPS Frequency 29.38 MHZ
Type PMSV Name PMSV METRO Frequency 134.175 MHZ
Type TWR Name TWR Frequency 118.3 MHZ

AIRPORT NEAR NAVIGATION AIDS
Type NDB Name Bergerud Frequency 316 KHZ
Type VOR-DME Name Gardermoen Frequency 115950 KHZ
Type NDB Name Oppaker Frequency 334 KHZ
Type NDB Name Solberg Frequency 414 KHZ
Type NDB Name Soknen Frequency 387 KHZ